sensor_id;sensor_type;location;lat;lon;timestamp;P1;durP1;ratioP1;P2;durP2;ratioP2
21110;SDS011;10713;51.912;4.494;2022-12-29T00:01:30;2.72;;;2.03;;
21110;SDS011;10713;51.912;4.494;2022-12-29T00:03:56;2.78;;;1.83;;
21110;SDS011;10713;51.912;4.494;2022-12-29T00:06:22;3.75;;;1.80;;
21110;SDS011;10713;51.912;4.494;2022-12-29T00:08:48;4.88;;;1.70;;
21110;SDS011;10713;51.912;4.494;2022-12-29T00:11:14;6.22;;;1.80;;
21110;SDS011;10713;51.912;4.494;2022-12-29T00:13:42;3.22;;;2.00;;
21110;SDS011;10713;51.912;4.494;2022-12-29T00:16:27;2.97;;;1.85;;
21110;SDS011;10713;51.912;4.494;2022-12-29T00:18:52;3.05;;;1.70;;
21110;SDS011;10713;51.912;4.494;2022-12-29T00:21:19;2.50;;;1.60;;
21110;SDS011;10713;51.912;4.494;2022-12-29T00:24:05;4.88;;;1.65;;
21110;SDS011;10713;51.912;4.494;2022-12-29T00:29:47;2.15;;;1.60;;
21110;SDS011;10713;51.912;4.494;2022-12-29T00:32:31;2.30;;;1.60;;
21110;SDS011;10713;51.912;4.494;2022-12-29T00:35:36;3.03;;;1.98;;
21110;SDS011;10713;51.912;4.494;2022-12-29T00:38:05;4.22;;;1.92;;
21110;SDS011;10713;51.912;4.494;2022-12-29T00:40:51;2.97;;;2.10;;
21110;SDS011;10713;51.912;4.494;2022-12-29T00:43:35;3.47;;;1.98;;
21110;SDS011;10713;51.912;4.494;2022-12-29T00:46:19;2.83;;;1.70;;
21110;SDS011;10713;51.912;4.494;2022-12-29T00:48:44;2.95;;;2.10;;
21110;SDS011;10713;51.912;4.494;2022-12-29T00:51:28;2.80;;;2.25;;
21110;SDS011;10713;51.912;4.494;2022-12-29T00:53:53;3.15;;;2.00;;
21110;SDS011;10713;51.912;4.494;2022-12-29T00:56:19;4.90;;;1.98;;
21110;SDS011;10713;51.912;4.494;2022-12-29T00:58:44;3.17;;;1.90;;
21110;SDS011;10713;51.912;4.494;2022-12-29T01:01:10;4.13;;;1.88;;
21110;SDS011;10713;51.912;4.494;2022-12-29T01:03:36;6.82;;;2.60;;
21110;SDS011;10713;51.912;4.494;2022-12-29T01:06:03;4.75;;;1.92;;
21110;SDS011;10713;51.912;4.494;2022-12-29T01:08:30;5.00;;;2.28;;
21110;SDS011;10713;51.912;4.494;2022-12-29T01:10:59;6.45;;;2.28;;
21110;SDS011;10713;51.912;4.494;2022-12-29T01:13:32;5.68;;;2.05;;
21110;SDS011;10713;51.912;4.494;2022-12-29T01:15:59;4.57;;;2.33;;
21110;SDS011;10713;51.912;4.494;2022-12-29T01:18:25;4.93;;;2.03;;
21110;SDS011;10713;51.912;4.494;2022-12-29T01:20:51;3.25;;;2.05;;
21110;SDS011;10713;51.912;4.494;2022-12-29T01:23:22;3.90;;;1.95;;
21110;SDS011;10713;51.912;4.494;2022-12-29T01:25:48;5.10;;;1.88;;
21110;SDS011;10713;51.912;4.494;2022-12-29T01:28:13;6.90;;;2.13;;
21110;SDS011;10713;51.912;4.494;2022-12-29T01:30:39;3.00;;;1.90;;
21110;SDS011;10713;51.912;4.494;2022-12-29T01:33:04;3.80;;;1.98;;
21110;SDS011;10713;51.912;4.494;2022-12-29T01:35:29;3.20;;;1.90;;
21110;SDS011;10713;51.912;4.494;2022-12-29T01:37:55;4.60;;;2.33;;
21110;SDS011;10713;51.912;4.494;2022-12-29T01:40:20;4.18;;;1.83;;
21110;SDS011;10713;51.912;4.494;2022-12-29T01:42:45;7.40;;;1.80;;
21110;SDS011;10713;51.912;4.494;2022-12-29T01:45:12;4.45;;;1.55;;
21110;SDS011;10713;51.912;4.494;2022-12-29T01:47:40;3.17;;;1.60;;
21110;SDS011;10713;51.912;4.494;2022-12-29T01:50:15;5.10;;;1.60;;
21110;SDS011;10713;51.912;4.494;2022-12-29T01:52:55;1.80;;;1.20;;
21110;SDS011;10713;51.912;4.494;2022-12-29T01:55:29;3.35;;;1.35;;
21110;SDS011;10713;51.912;4.494;2022-12-29T01:57:58;4.93;;;1.30;;
21110;SDS011;10713;51.912;4.494;2022-12-29T02:00:29;4.63;;;1.35;;
21110;SDS011;10713;51.912;4.494;2022-12-29T02:02:54;3.95;;;1.30;;
21110;SDS011;10713;51.912;4.494;2022-12-29T02:05:32;3.78;;;1.30;;
21110;SDS011;10713;51.912;4.494;2022-12-29T02:08:02;8.05;;;1.63;;
21110;SDS011;10713;51.912;4.494;2022-12-29T02:10:30;4.97;;;1.45;;
21110;SDS011;10713;51.912;4.494;2022-12-29T02:12:57;4.32;;;1.85;;
21110;SDS011;10713;51.912;4.494;2022-12-29T02:15:28;6.18;;;2.03;;
21110;SDS011;10713;51.912;4.494;2022-12-29T02:20:57;13.00;;;4.10;;
21110;SDS011;10713;51.912;4.494;2022-12-29T02:24:11;9.65;;;3.30;;
21110;SDS011;10713;51.912;4.494;2022-12-29T02:27:04;8.93;;;3.13;;
21110;SDS011;10713;51.912;4.494;2022-12-29T02:32:27;6.32;;;2.58;;
21110;SDS011;10713;51.912;4.494;2022-12-29T02:40:16;8.93;;;1.80;;
21110;SDS011;10713;51.912;4.494;2022-12-29T02:42:49;6.03;;;1.98;;
21110;SDS011;10713;51.912;4.494;2022-12-29T02:47:53;6.75;;;1.70;;
21110;SDS011;10713;51.912;4.494;2022-12-29T02:50:32;6.65;;;1.70;;
21110;SDS011;10713;51.912;4.494;2022-12-29T02:53:02;12.68;;;1.83;;
21110;SDS011;10713;51.912;4.494;2022-12-29T02:55:31;9.07;;;1.50;;
21110;SDS011;10713;51.912;4.494;2022-12-29T03:00:48;8.60;;;1.90;;
21110;SDS011;10713;51.912;4.494;2022-12-29T03:08:40;6.07;;;1.27;;
21110;SDS011;10713;51.912;4.494;2022-12-29T03:11:14;10.55;;;1.27;;
21110;SDS011;10713;51.912;4.494;2022-12-29T03:14:03;6.18;;;1.35;;
21110;SDS011;10713;51.912;4.494;2022-12-29T03:17:02;7.93;;;1.58;;
21110;SDS011;10713;51.912;4.494;2022-12-29T03:19:35;7.10;;;1.23;;
21110;SDS011;10713;51.912;4.494;2022-12-29T03:22:10;4.15;;;1.20;;
21110;SDS011;10713;51.912;4.494;2022-12-29T03:24:54;6.93;;;1.17;;
21110;SDS011;10713;51.912;4.494;2022-12-29T03:27:43;7.55;;;1.30;;
21110;SDS011;10713;51.912;4.494;2022-12-29T03:30:12;6.32;;;1.30;;
21110;SDS011;10713;51.912;4.494;2022-12-29T03:32:39;7.47;;;1.48;;
21110;SDS011;10713;51.912;4.494;2022-12-29T03:35:18;5.05;;;1.30;;
21110;SDS011;10713;51.912;4.494;2022-12-29T03:37:51;5.25;;;1.38;;
21110;SDS011;10713;51.912;4.494;2022-12-29T03:40:23;3.90;;;1.23;;
21110;SDS011;10713;51.912;4.494;2022-12-29T03:42:51;5.25;;;1.10;;
21110;SDS011;10713;51.912;4.494;2022-12-29T03:45:18;9.90;;;2.05;;
21110;SDS011;10713;51.912;4.494;2022-12-29T03:47:44;8.32;;;1.50;;
21110;SDS011;10713;51.912;4.494;2022-12-29T03:50:11;8.35;;;1.20;;
21110;SDS011;10713;51.912;4.494;2022-12-29T03:52:37;7.72;;;1.35;;
21110;SDS011;10713;51.912;4.494;2022-12-29T03:55:03;9.45;;;1.27;;
21110;SDS011;10713;51.912;4.494;2022-12-29T03:57:29;8.32;;;1.70;;
21110;SDS011;10713;51.912;4.494;2022-12-29T03:59:54;6.53;;;1.20;;
21110;SDS011;10713;51.912;4.494;2022-12-29T04:02:20;6.28;;;1.30;;
21110;SDS011;10713;51.912;4.494;2022-12-29T04:04:45;19.98;;;1.95;;
21110;SDS011;10713;51.912;4.494;2022-12-29T04:07:11;6.95;;;1.15;;
21110;SDS011;10713;51.912;4.494;2022-12-29T04:09:36;10.38;;;1.60;;
21110;SDS011;10713;51.912;4.494;2022-12-29T04:12:01;13.32;;;1.75;;
21110;SDS011;10713;51.912;4.494;2022-12-29T04:14:27;10.95;;;1.60;;
21110;SDS011;10713;51.912;4.494;2022-12-29T04:16:52;9.60;;;1.70;;
21110;SDS011;10713;51.912;4.494;2022-12-29T04:19:17;12.20;;;1.67;;
21110;SDS011;10713;51.912;4.494;2022-12-29T04:21:43;12.00;;;2.15;;
21110;SDS011;10713;51.912;4.494;2022-12-29T04:24:08;7.28;;;1.38;;
21110;SDS011;10713;51.912;4.494;2022-12-29T04:26:34;11.07;;;1.85;;
21110;SDS011;10713;51.912;4.494;2022-12-29T04:28:59;9.65;;;1.60;;
21110;SDS011;10713;51.912;4.494;2022-12-29T04:31:24;7.47;;;1.60;;
21110;SDS011;10713;51.912;4.494;2022-12-29T04:33:50;10.95;;;1.88;;
21110;SDS011;10713;51.912;4.494;2022-12-29T04:36:15;7.15;;;1.67;;
21110;SDS011;10713;51.912;4.494;2022-12-29T04:38:40;9.60;;;2.47;;
21110;SDS011;10713;51.912;4.494;2022-12-29T04:41:06;5.97;;;1.70;;
21110;SDS011;10713;51.912;4.494;2022-12-29T04:43:31;8.18;;;1.83;;
21110;SDS011;10713;51.912;4.494;2022-12-29T04:45:56;11.88;;;1.50;;
21110;SDS011;10713;51.912;4.494;2022-12-29T04:48:22;9.98;;;1.80;;
21110;SDS011;10713;51.912;4.494;2022-12-29T04:50:48;12.05;;;2.05;;
21110;SDS011;10713;51.912;4.494;2022-12-29T04:53:15;11.77;;;1.83;;
21110;SDS011;10713;51.912;4.494;2022-12-29T04:55:41;11.45;;;1.90;;
21110;SDS011;10713;51.912;4.494;2022-12-29T04:58:07;7.82;;;1.60;;
21110;SDS011;10713;51.912;4.494;2022-12-29T05:00:32;13.20;;;1.75;;
21110;SDS011;10713;51.912;4.494;2022-12-29T05:02:58;12.48;;;1.95;;
21110;SDS011;10713;51.912;4.494;2022-12-29T05:05:23;10.80;;;1.90;;
21110;SDS011;10713;51.912;4.494;2022-12-29T05:07:48;12.05;;;1.80;;
21110;SDS011;10713;51.912;4.494;2022-12-29T05:10:14;9.32;;;2.05;;
21110;SDS011;10713;51.912;4.494;2022-12-29T05:12:39;12.40;;;2.05;;
21110;SDS011;10713;51.912;4.494;2022-12-29T05:15:05;17.20;;;2.65;;
21110;SDS011;10713;51.912;4.494;2022-12-29T05:17:32;14.00;;;2.22;;
21110;SDS011;10713;51.912;4.494;2022-12-29T05:19:58;15.57;;;1.60;;
21110;SDS011;10713;51.912;4.494;2022-12-29T05:22:23;16.92;;;2.55;;
21110;SDS011;10713;51.912;4.494;2022-12-29T05:24:49;15.90;;;1.95;;
21110;SDS011;10713;51.912;4.494;2022-12-29T05:27:14;12.27;;;2.45;;
21110;SDS011;10713;51.912;4.494;2022-12-29T05:29:39;10.45;;;1.80;;
21110;SDS011;10713;51.912;4.494;2022-12-29T05:32:05;18.00;;;2.25;;
21110;SDS011;10713;51.912;4.494;2022-12-29T05:34:30;15.75;;;2.45;;
21110;SDS011;10713;51.912;4.494;2022-12-29T05:36:56;17.60;;;2.47;;
21110;SDS011;10713;51.912;4.494;2022-12-29T05:39:21;17.17;;;2.10;;
21110;SDS011;10713;51.912;4.494;2022-12-29T05:41:46;21.98;;;2.65;;
21110;SDS011;10713;51.912;4.494;2022-12-29T05:44:12;12.70;;;2.33;;
21110;SDS011;10713;51.912;4.494;2022-12-29T05:46:37;15.05;;;1.92;;
21110;SDS011;10713;51.912;4.494;2022-12-29T05:49:04;18.35;;;2.67;;
21110;SDS011;10713;51.912;4.494;2022-12-29T05:51:30;22.65;;;2.72;;
21110;SDS011;10713;51.912;4.494;2022-12-29T05:53:55;18.77;;;3.05;;
21110;SDS011;10713;51.912;4.494;2022-12-29T05:56:20;18.00;;;2.42;;
21110;SDS011;10713;51.912;4.494;2022-12-29T05:58:46;14.45;;;2.17;;
21110;SDS011;10713;51.912;4.494;2022-12-29T06:01:11;15.82;;;2.30;;
21110;SDS011;10713;51.912;4.494;2022-12-29T06:03:37;15.15;;;2.22;;
21110;SDS011;10713;51.912;4.494;2022-12-29T06:06:02;12.88;;;2.00;;
21110;SDS011;10713;51.912;4.494;2022-12-29T06:08:28;11.25;;;2.47;;
21110;SDS011;10713;51.912;4.494;2022-12-29T06:10:53;11.35;;;1.95;;
21110;SDS011;10713;51.912;4.494;2022-12-29T06:13:18;11.85;;;2.15;;
21110;SDS011;10713;51.912;4.494;2022-12-29T06:15:44;14.18;;;2.13;;
21110;SDS011;10713;51.912;4.494;2022-12-29T06:18:09;10.05;;;2.22;;
21110;SDS011;10713;51.912;4.494;2022-12-29T06:20:35;15.02;;;2.38;;
21110;SDS011;10713;51.912;4.494;2022-12-29T06:23:00;7.55;;;2.35;;
21110;SDS011;10713;51.912;4.494;2022-12-29T06:25:26;7.90;;;1.75;;
21110;SDS011;10713;51.912;4.494;2022-12-29T06:27:51;16.55;;;1.98;;
21110;SDS011;10713;51.912;4.494;2022-12-29T06:30:16;13.55;;;2.45;;
21110;SDS011;10713;51.912;4.494;2022-12-29T06:32:42;17.33;;;2.28;;
21110;SDS011;10713;51.912;4.494;2022-12-29T06:35:08;16.48;;;2.42;;
21110;SDS011;10713;51.912;4.494;2022-12-29T06:37:34;10.57;;;1.73;;
21110;SDS011;10713;51.912;4.494;2022-12-29T06:39:59;11.65;;;2.53;;
21110;SDS011;10713;51.912;4.494;2022-12-29T06:42:25;14.63;;;1.67;;
21110;SDS011;10713;51.912;4.494;2022-12-29T06:44:50;10.02;;;1.85;;
21110;SDS011;10713;51.912;4.494;2022-12-29T06:47:15;8.57;;;1.67;;
21110;SDS011;10713;51.912;4.494;2022-12-29T06:49:41;11.32;;;1.80;;
21110;SDS011;10713;51.912;4.494;2022-12-29T06:52:06;9.57;;;1.52;;
21110;SDS011;10713;51.912;4.494;2022-12-29T06:54:31;6.70;;;1.75;;
21110;SDS011;10713;51.912;4.494;2022-12-29T06:56:57;10.10;;;1.80;;
21110;SDS011;10713;51.912;4.494;2022-12-29T06:59:23;7.28;;;1.70;;
21110;SDS011;10713;51.912;4.494;2022-12-29T07:01:49;9.68;;;2.38;;
21110;SDS011;10713;51.912;4.494;2022-12-29T07:04:15;12.35;;;2.50;;
21110;SDS011;10713;51.912;4.494;2022-12-29T07:06:40;13.27;;;2.67;;
21110;SDS011;10713;51.912;4.494;2022-12-29T07:09:06;15.82;;;2.67;;
21110;SDS011;10713;51.912;4.494;2022-12-29T07:11:32;16.23;;;2.30;;
21110;SDS011;10713;51.912;4.494;2022-12-29T07:13:58;21.38;;;2.13;;
21110;SDS011;10713;51.912;4.494;2022-12-29T07:16:24;8.23;;;2.00;;
21110;SDS011;10713;51.912;4.494;2022-12-29T07:18:49;10.82;;;2.33;;
21110;SDS011;10713;51.912;4.494;2022-12-29T07:21:14;11.07;;;2.28;;
21110;SDS011;10713;51.912;4.494;2022-12-29T07:23:40;11.65;;;2.20;;
21110;SDS011;10713;51.912;4.494;2022-12-29T07:26:06;13.65;;;2.00;;
21110;SDS011;10713;51.912;4.494;2022-12-29T07:28:34;16.88;;;2.00;;
21110;SDS011;10713;51.912;4.494;2022-12-29T07:31:00;10.73;;;2.05;;
21110;SDS011;10713;51.912;4.494;2022-12-29T07:33:28;7.90;;;1.70;;
21110;SDS011;10713;51.912;4.494;2022-12-29T07:35:53;11.85;;;2.10;;
21110;SDS011;10713;51.912;4.494;2022-12-29T07:38:19;13.30;;;2.05;;
21110;SDS011;10713;51.912;4.494;2022-12-29T07:40:44;10.73;;;1.83;;
21110;SDS011;10713;51.912;4.494;2022-12-29T07:43:09;14.73;;;2.30;;
21110;SDS011;10713;51.912;4.494;2022-12-29T07:45:35;18.63;;;2.47;;
21110;SDS011;10713;51.912;4.494;2022-12-29T07:48:00;14.50;;;2.20;;
21110;SDS011;10713;51.912;4.494;2022-12-29T07:50:27;21.92;;;2.58;;
21110;SDS011;10713;51.912;4.494;2022-12-29T07:52:53;20.58;;;2.13;;
21110;SDS011;10713;51.912;4.494;2022-12-29T07:55:18;17.33;;;2.30;;
21110;SDS011;10713;51.912;4.494;2022-12-29T07:57:43;18.08;;;2.47;;
21110;SDS011;10713;51.912;4.494;2022-12-29T08:00:09;16.92;;;2.85;;
21110;SDS011;10713;51.912;4.494;2022-12-29T08:02:35;17.02;;;2.60;;
21110;SDS011;10713;51.912;4.494;2022-12-29T08:05:01;16.20;;;2.28;;
21110;SDS011;10713;51.912;4.494;2022-12-29T08:07:26;16.27;;;2.50;;
21110;SDS011;10713;51.912;4.494;2022-12-29T08:09:51;13.68;;;2.33;;
21110;SDS011;10713;51.912;4.494;2022-12-29T08:12:17;17.67;;;2.85;;
21110;SDS011;10713;51.912;4.494;2022-12-29T08:14:42;16.40;;;2.67;;
21110;SDS011;10713;51.912;4.494;2022-12-29T08:17:08;12.63;;;2.30;;
21110;SDS011;10713;51.912;4.494;2022-12-29T08:19:33;11.73;;;1.75;;
21110;SDS011;10713;51.912;4.494;2022-12-29T08:21:59;14.93;;;2.83;;
21110;SDS011;10713;51.912;4.494;2022-12-29T08:24:24;19.42;;;3.15;;
21110;SDS011;10713;51.912;4.494;2022-12-29T08:26:49;12.90;;;2.22;;
21110;SDS011;10713;51.912;4.494;2022-12-29T08:29:15;15.15;;;2.00;;
21110;SDS011;10713;51.912;4.494;2022-12-29T08:31:40;12.48;;;2.33;;
21110;SDS011;10713;51.912;4.494;2022-12-29T08:34:05;16.30;;;2.47;;
21110;SDS011;10713;51.912;4.494;2022-12-29T08:36:32;18.63;;;2.38;;
21110;SDS011;10713;51.912;4.494;2022-12-29T08:38:57;20.40;;;3.15;;
21110;SDS011;10713;51.912;4.494;2022-12-29T08:41:23;18.48;;;2.10;;
21110;SDS011;10713;51.912;4.494;2022-12-29T08:43:49;18.17;;;2.95;;
21110;SDS011;10713;51.912;4.494;2022-12-29T08:46:15;15.88;;;1.88;;
21110;SDS011;10713;51.912;4.494;2022-12-29T08:48:41;17.35;;;2.20;;
21110;SDS011;10713;51.912;4.494;2022-12-29T08:51:06;15.27;;;2.33;;
21110;SDS011;10713;51.912;4.494;2022-12-29T08:53:32;14.43;;;2.28;;
21110;SDS011;10713;51.912;4.494;2022-12-29T08:55:59;19.30;;;3.15;;
21110;SDS011;10713;51.912;4.494;2022-12-29T08:58:25;25.42;;;3.03;;
21110;SDS011;10713;51.912;4.494;2022-12-29T09:00:52;13.85;;;2.92;;
21110;SDS011;10713;51.912;4.494;2022-12-29T09:03:21;15.45;;;2.90;;
21110;SDS011;10713;51.912;4.494;2022-12-29T09:05:48;13.02;;;2.80;;
21110;SDS011;10713;51.912;4.494;2022-12-29T09:08:14;16.95;;;2.47;;
21110;SDS011;10713;51.912;4.494;2022-12-29T09:10:40;11.55;;;2.47;;
21110;SDS011;10713;51.912;4.494;2022-12-29T09:13:06;13.27;;;2.35;;
21110;SDS011;10713;51.912;4.494;2022-12-29T09:15:31;11.45;;;2.25;;
21110;SDS011;10713;51.912;4.494;2022-12-29T09:17:56;15.38;;;2.83;;
21110;SDS011;10713;51.912;4.494;2022-12-29T09:20:22;12.27;;;2.22;;
21110;SDS011;10713;51.912;4.494;2022-12-29T09:22:47;13.07;;;2.85;;
21110;SDS011;10713;51.912;4.494;2022-12-29T09:25:13;11.23;;;2.47;;
21110;SDS011;10713;51.912;4.494;2022-12-29T09:27:39;17.10;;;2.80;;
21110;SDS011;10713;51.912;4.494;2022-12-29T09:30:05;18.55;;;2.95;;
21110;SDS011;10713;51.912;4.494;2022-12-29T09:32:33;12.23;;;2.53;;
21110;SDS011;10713;51.912;4.494;2022-12-29T09:34:59;12.77;;;2.65;;
21110;SDS011;10713;51.912;4.494;2022-12-29T09:37:24;10.98;;;2.20;;
21110;SDS011;10713;51.912;4.494;2022-12-29T09:39:50;16.65;;;3.53;;
21110;SDS011;10713;51.912;4.494;2022-12-29T09:47:48;15.90;;;2.75;;
21110;SDS011;10713;51.912;4.494;2022-12-29T09:53:02;9.18;;;2.70;;
21110;SDS011;10713;51.912;4.494;2022-12-29T09:55:43;16.63;;;2.97;;
21110;SDS011;10713;51.912;4.494;2022-12-29T09:58:14;17.30;;;3.22;;
21110;SDS011;10713;51.912;4.494;2022-12-29T10:01:04;12.60;;;2.63;;
21110;SDS011;10713;51.912;4.494;2022-12-29T10:03:44;11.15;;;2.80;;
21110;SDS011;10713;51.912;4.494;2022-12-29T10:08:57;21.20;;;3.65;;
21110;SDS011;10713;51.912;4.494;2022-12-29T10:24:32;72.85;;;8.10;;
21110;SDS011;10713;51.912;4.494;2022-12-29T10:27:02;22.52;;;3.80;;
21110;SDS011;10713;51.912;4.494;2022-12-29T10:29:37;24.27;;;3.92;;
21110;SDS011;10713;51.912;4.494;2022-12-29T10:32:33;33.95;;;4.72;;
21110;SDS011;10713;51.912;4.494;2022-12-29T10:35:05;60.20;;;7.38;;
21110;SDS011;10713;51.912;4.494;2022-12-29T10:40:43;23.30;;;3.65;;
21110;SDS011;10713;51.912;4.494;2022-12-29T10:45:49;32.05;;;4.35;;
21110;SDS011;10713;51.912;4.494;2022-12-29T10:48:21;27.77;;;4.15;;
21110;SDS011;10713;51.912;4.494;2022-12-29T10:50:50;23.13;;;4.32;;
21110;SDS011;10713;51.912;4.494;2022-12-29T10:53:20;36.00;;;4.63;;
21110;SDS011;10713;51.912;4.494;2022-12-29T10:55:51;34.13;;;5.00;;
21110;SDS011;10713;51.912;4.494;2022-12-29T10:58:18;36.95;;;5.05;;
21110;SDS011;10713;51.912;4.494;2022-12-29T11:00:49;38.20;;;5.60;;
21110;SDS011;10713;51.912;4.494;2022-12-29T11:06:04;42.63;;;6.00;;
21110;SDS011;10713;51.912;4.494;2022-12-29T11:08:35;34.33;;;5.78;;
21110;SDS011;10713;51.912;4.494;2022-12-29T11:11:08;32.95;;;4.65;;
21110;SDS011;10713;51.912;4.494;2022-12-29T11:13:38;29.05;;;4.57;;
21110;SDS011;10713;51.912;4.494;2022-12-29T11:16:14;26.30;;;5.20;;
21110;SDS011;10713;51.912;4.494;2022-12-29T11:18:52;39.47;;;5.55;;
21110;SDS011;10713;51.912;4.494;2022-12-29T11:23:56;39.35;;;4.03;;
21110;SDS011;10713;51.912;4.494;2022-12-29T11:26:23;31.65;;;4.25;;
21110;SDS011;10713;51.912;4.494;2022-12-29T11:29:10;29.02;;;4.28;;
21110;SDS011;10713;51.912;4.494;2022-12-29T11:31:46;33.47;;;4.32;;
21110;SDS011;10713;51.912;4.494;2022-12-29T11:34:17;35.40;;;4.88;;
21110;SDS011;10713;51.912;4.494;2022-12-29T11:36:43;29.70;;;3.42;;
21110;SDS011;10713;51.912;4.494;2022-12-29T11:39:19;25.35;;;3.78;;
21110;SDS011;10713;51.912;4.494;2022-12-29T11:41:54;32.65;;;4.68;;
21110;SDS011;10713;51.912;4.494;2022-12-29T11:44:20;19.95;;;3.47;;
21110;SDS011;10713;51.912;4.494;2022-12-29T11:46:46;24.92;;;3.15;;
21110;SDS011;10713;51.912;4.494;2022-12-29T11:49:22;23.27;;;3.58;;
21110;SDS011;10713;51.912;4.494;2022-12-29T11:51:50;23.02;;;3.60;;
21110;SDS011;10713;51.912;4.494;2022-12-29T11:54:23;17.15;;;3.45;;
21110;SDS011;10713;51.912;4.494;2022-12-29T11:56:52;28.63;;;3.78;;
21110;SDS011;10713;51.912;4.494;2022-12-29T12:01:59;19.02;;;2.95;;
21110;SDS011;10713;51.912;4.494;2022-12-29T12:04:33;20.83;;;3.03;;
21110;SDS011;10713;51.912;4.494;2022-12-29T12:07:10;31.45;;;3.45;;
21110;SDS011;10713;51.912;4.494;2022-12-29T12:09:42;21.83;;;3.60;;
21110;SDS011;10713;51.912;4.494;2022-12-29T12:12:22;18.25;;;2.85;;
21110;SDS011;10713;51.912;4.494;2022-12-29T12:14:54;18.50;;;3.15;;
21110;SDS011;10713;51.912;4.494;2022-12-29T12:20:51;25.48;;;3.60;;
21110;SDS011;10713;51.912;4.494;2022-12-29T12:23:25;23.98;;;3.20;;
21110;SDS011;10713;51.912;4.494;2022-12-29T12:28:45;19.55;;;3.90;;
21110;SDS011;10713;51.912;4.494;2022-12-29T12:34:05;20.45;;;3.58;;
21110;SDS011;10713;51.912;4.494;2022-12-29T12:45:16;20.38;;;3.58;;
21110;SDS011;10713;51.912;4.494;2022-12-29T12:51:22;16.02;;;3.25;;
21110;SDS011;10713;51.912;4.494;2022-12-29T12:57:05;21.92;;;2.83;;
21110;SDS011;10713;51.912;4.494;2022-12-29T12:59:41;17.95;;;3.08;;
21110;SDS011;10713;51.912;4.494;2022-12-29T13:02:29;19.08;;;3.00;;
21110;SDS011;10713;51.912;4.494;2022-12-29T13:05:20;22.23;;;4.28;;
21110;SDS011;10713;51.912;4.494;2022-12-29T13:07:57;15.52;;;2.95;;
21110;SDS011;10713;51.912;4.494;2022-12-29T13:14:06;23.95;;;3.88;;
21110;SDS011;10713;51.912;4.494;2022-12-29T13:16:43;20.48;;;3.47;;
21110;SDS011;10713;51.912;4.494;2022-12-29T13:19:34;20.45;;;2.60;;
21110;SDS011;10713;51.912;4.494;2022-12-29T13:27:51;11.88;;;2.30;;
21110;SDS011;10713;51.912;4.494;2022-12-29T13:30:21;9.45;;;1.85;;
21110;SDS011;10713;51.912;4.494;2022-12-29T13:32:56;10.80;;;2.17;;
21110;SDS011;10713;51.912;4.494;2022-12-29T13:35:51;13.38;;;2.28;;
21110;SDS011;10713;51.912;4.494;2022-12-29T13:41:10;8.82;;;1.80;;
21110;SDS011;10713;51.912;4.494;2022-12-29T13:43:39;8.07;;;1.58;;
21110;SDS011;10713;51.912;4.494;2022-12-29T13:46:13;8.63;;;2.13;;
21110;SDS011;10713;51.912;4.494;2022-12-29T13:48:44;9.20;;;2.00;;
21110;SDS011;10713;51.912;4.494;2022-12-29T13:51:14;13.68;;;2.40;;
21110;SDS011;10713;51.912;4.494;2022-12-29T13:53:42;5.43;;;1.80;;
21110;SDS011;10713;51.912;4.494;2022-12-29T13:56:31;12.15;;;2.22;;
21110;SDS011;10713;51.912;4.494;2022-12-29T13:59:06;11.27;;;3.00;;
21110;SDS011;10713;51.912;4.494;2022-12-29T14:01:41;11.65;;;2.70;;
21110;SDS011;10713;51.912;4.494;2022-12-29T14:04:22;9.55;;;2.22;;
21110;SDS011;10713;51.912;4.494;2022-12-29T14:07:00;9.75;;;2.25;;
21110;SDS011;10713;51.912;4.494;2022-12-29T14:14:48;14.13;;;2.45;;
21110;SDS011;10713;51.912;4.494;2022-12-29T14:17:16;13.18;;;2.10;;
21110;SDS011;10713;51.912;4.494;2022-12-29T14:19:45;8.68;;;1.77;;
21110;SDS011;10713;51.912;4.494;2022-12-29T14:22:11;11.68;;;1.95;;
21110;SDS011;10713;51.912;4.494;2022-12-29T14:24:38;12.93;;;2.40;;
21110;SDS011;10713;51.912;4.494;2022-12-29T14:32:35;13.07;;;2.13;;
21110;SDS011;10713;51.912;4.494;2022-12-29T14:34:49;7.78;;;2.00;;
21110;SDS011;10713;51.912;4.494;2022-12-29T14:37:31;10.85;;;2.08;;
21110;SDS011;10713;51.912;4.494;2022-12-29T14:40:04;13.18;;;2.03;;
21110;SDS011;10713;51.912;4.494;2022-12-29T14:42:39;8.35;;;1.98;;
21110;SDS011;10713;51.912;4.494;2022-12-29T14:45:07;16.88;;;2.20;;
21110;SDS011;10713;51.912;4.494;2022-12-29T14:47:39;11.05;;;2.30;;
21110;SDS011;10713;51.912;4.494;2022-12-29T14:50:13;13.30;;;2.10;;
21110;SDS011;10713;51.912;4.494;2022-12-29T14:52:51;8.70;;;2.58;;
21110;SDS011;10713;51.912;4.494;2022-12-29T14:57:48;29.57;;;5.70;;
21110;SDS011;10713;51.912;4.494;2022-12-29T15:00:21;10.75;;;2.55;;
21110;SDS011;10713;51.912;4.494;2022-12-29T15:02:50;20.50;;;3.63;;
21110;SDS011;10713;51.912;4.494;2022-12-29T15:05:29;21.98;;;5.15;;
21110;SDS011;10713;51.912;4.494;2022-12-29T15:07:58;18.92;;;3.97;;
21110;SDS011;10713;51.912;4.494;2022-12-29T15:10:26;17.05;;;2.97;;
21110;SDS011;10713;51.912;4.494;2022-12-29T15:13:00;20.25;;;3.72;;
21110;SDS011;10713;51.912;4.494;2022-12-29T15:15:29;18.23;;;3.25;;
21110;SDS011;10713;51.912;4.494;2022-12-29T15:18:18;15.02;;;2.63;;
21110;SDS011;10713;51.912;4.494;2022-12-29T15:20:50;17.23;;;2.97;;
21110;SDS011;10713;51.912;4.494;2022-12-29T15:23:17;10.55;;;2.30;;
21110;SDS011;10713;51.912;4.494;2022-12-29T15:26:03;10.55;;;2.53;;
21110;SDS011;10713;51.912;4.494;2022-12-29T15:28:40;13.95;;;3.05;;
21110;SDS011;10713;51.912;4.494;2022-12-29T15:31:18;13.73;;;2.90;;
21110;SDS011;10713;51.912;4.494;2022-12-29T15:33:46;14.07;;;2.50;;
21110;SDS011;10713;51.912;4.494;2022-12-29T15:36:18;16.90;;;2.92;;
21110;SDS011;10713;51.912;4.494;2022-12-29T15:38:44;8.57;;;2.45;;
21110;SDS011;10713;51.912;4.494;2022-12-29T15:41:15;15.85;;;3.40;;
21110;SDS011;10713;51.912;4.494;2022-12-29T15:44:17;10.45;;;3.05;;
21110;SDS011;10713;51.912;4.494;2022-12-29T15:46:48;10.88;;;2.53;;
21110;SDS011;10713;51.912;4.494;2022-12-29T15:49:14;14.90;;;3.20;;
21110;SDS011;10713;51.912;4.494;2022-12-29T15:51:41;14.00;;;2.90;;
21110;SDS011;10713;51.912;4.494;2022-12-29T15:54:15;23.25;;;4.75;;
21110;SDS011;10713;51.912;4.494;2022-12-29T15:56:43;10.85;;;2.72;;
21110;SDS011;10713;51.912;4.494;2022-12-29T15:59:25;11.57;;;2.20;;
21110;SDS011;10713;51.912;4.494;2022-12-29T16:01:53;15.60;;;2.75;;
21110;SDS011;10713;51.912;4.494;2022-12-29T16:04:20;11.05;;;2.22;;
21110;SDS011;10713;51.912;4.494;2022-12-29T16:09:41;16.25;;;3.03;;
21110;SDS011;10713;51.912;4.494;2022-12-29T16:12:15;10.13;;;1.92;;
21110;SDS011;10713;51.912;4.494;2022-12-29T16:14:47;13.05;;;2.53;;
21110;SDS011;10713;51.912;4.494;2022-12-29T16:17:17;14.07;;;2.88;;
21110;SDS011;10713;51.912;4.494;2022-12-29T16:19:51;10.65;;;1.80;;
21110;SDS011;10713;51.912;4.494;2022-12-29T16:22:31;5.88;;;1.98;;
21110;SDS011;10713;51.912;4.494;2022-12-29T16:25:03;12.20;;;2.40;;
21110;SDS011;10713;51.912;4.494;2022-12-29T16:27:43;13.23;;;2.45;;
21110;SDS011;10713;51.912;4.494;2022-12-29T16:30:22;9.90;;;2.20;;
21110;SDS011;10713;51.912;4.494;2022-12-29T16:32:52;11.13;;;2.20;;
21110;SDS011;10713;51.912;4.494;2022-12-29T16:35:26;12.25;;;2.33;;
21110;SDS011;10713;51.912;4.494;2022-12-29T16:38:07;13.85;;;1.95;;
21110;SDS011;10713;51.912;4.494;2022-12-29T16:40:48;9.43;;;2.55;;
21110;SDS011;10713;51.912;4.494;2022-12-29T16:43:33;8.32;;;2.30;;
21110;SDS011;10713;51.912;4.494;2022-12-29T16:46:26;11.50;;;2.65;;
21110;SDS011;10713;51.912;4.494;2022-12-29T16:48:54;11.45;;;1.60;;
21110;SDS011;10713;51.912;4.494;2022-12-29T16:51:36;10.10;;;2.20;;